Time;durP1;ratioP1;P1;durP2;ratioP2;P2;SDS_P1;SDS_P2;PMS_P1;PMS_P2;Temp;Humidity;BMP_temperature;BMP_pressure;BME280_temperature;BME280_humidity;BME280_pressure;Samples;Min_cycle;Max_cycle;Signal;HPM_P1;HPM_P2
2022/07/07 00:02:15;;;;;;;5.07;2.00;;;;;10.80;94775.00;;;;7391816;19;20133;-73
2022/07/07 00:04:50;;;;;;;2.88;1.50;;;;;10.90;94763.00;;;;7391485;19;20129;-73
2022/07/07 00:07:31;;;;;;;3.60;1.60;;;;;10.90;94775.00;;;;7389233;19;20168;-73
2022/07/07 00:10:06;;;;;;;3.67;1.70;;;;;10.90;94769.00;;;;7390763;19;20144;-73
2022/07/07 00:12:33;;;;;;;3.17;1.60;;;;;10.90;94770.00;;;;7389681;19;20117;-73
2022/07/07 00:15:01;;;;;;;6.93;1.80;;;;;10.90;94771.00;;;;7392180;19;20144;-74
2022/07/07 00:17:36;;;;;;;4.10;1.70;;;;;11.10;94767.00;;;;7392093;19;20120;-74
2022/07/07 00:20:05;;;;;;;1.63;1.40;;;;;11.10;94767.00;;;;7392885;19;20137;-73
2022/07/07 00:22:32;;;;;;;2.88;1.80;;;;;11.20;94764.00;;;;7391982;19;20125;-74
2022/07/07 00:25:07;;;;;;;4.20;1.98;;;;;11.10;94768.00;;;;7392094;19;20462;-73
2022/07/07 00:27:42;;;;;;;3.60;1.75;;;;;11.20;94760.00;;;;7392621;19;20117;-74
2022/07/07 00:30:16;;;;;;;2.83;1.50;;;;;11.10;94764.00;;;;7391139;19;20612;-73
2022/07/07 00:32:47;;;;;;;3.55;1.60;;;;;11.10;94760.00;;;;7391015;19;20165;-74
2022/07/07 00:35:20;;;;;;;3.28;1.70;;;;;11.20;94754.00;;;;7391828;19;20131;-73
2022/07/07 00:37:54;;;;;;;2.67;1.83;;;;;11.20;94749.00;;;;7391864;19;20480;-73
2022/07/07 00:40:27;;;;;;;2.50;1.55;;;;;11.20;94752.00;;;;7390900;19;20216;-73
2022/07/07 00:43:01;;;;;;;5.22;1.75;;;;;11.30;94747.00;;;;7390296;19;20513;-74
2022/07/07 00:45:29;;;;;;;1.80;1.60;;;;;11.40;94745.00;;;;7392043;19;20204;-74
2022/07/07 00:47:58;;;;;;;4.65;1.67;;;;;11.40;94743.00;;;;7390855;19;20463;-73
2022/07/07 00:50:32;;;;;;;2.22;1.40;;;;;11.40;94731.00;;;;7390666;19;20164;-74
2022/07/07 00:53:00;;;;;;;2.97;1.80;;;;;11.40;94738.00;;;;7391323;19;20233;-74
2022/07/07 00:55:29;;;;;;;1.98;1.45;;;;;11.60;94732.00;;;;7388292;19;20145;-73
2022/07/07 00:58:04;;;;;;;2.70;1.45;;;;;11.70;94729.00;;;;7385778;19;20487;-73
2022/07/07 01:00:32;;;;;;;4.93;2.00;;;;;11.70;94723.00;;;;7389026;19;20132;-74
2022/07/07 01:03:00;;;;;;;3.25;1.60;;;;;11.80;94729.00;;;;7390318;19;20665;-73
2022/07/07 01:05:41;;;;;;;4.65;1.40;;;;;11.80;94718.00;;;;7390828;19;20136;-73
2022/07/07 01:08:15;;;;;;;2.47;1.60;;;;;11.90;94723.00;;;;7388060;19;20175;-74
2022/07/07 01:10:56;;;;;;;1.67;1.40;;;;;12.00;94719.00;;;;7389443;19;20172;-74
2022/07/07 01:13:23;;;;;;;4.28;1.40;;;;;12.00;94716.00;;;;7394870;19;20181;-73
2022/07/07 01:15:57;;;;;;;1.33;1.23;;;;;12.10;94715.00;;;;7392026;19;20140;-74
2022/07/07 01:18:25;;;;;;;3.85;1.55;;;;;12.30;94723.00;;;;7393301;19;20147;-73
2022/07/07 01:20:55;;;;;;;2.85;1.58;;;;;12.40;94710.00;;;;7391734;19;20223;-73
2022/07/07 01:23:31;;;;;;;3.10;1.30;;;;;12.40;94710.00;;;;7391271;19;20148;-74
2022/07/07 01:26:00;;;;;;;1.63;1.40;;;;;12.50;94712.00;;;;7389835;19;20623;-72
2022/07/07 01:28:28;;;;;;;3.60;1.77;;;;;12.50;94710.00;;;;7389756;19;20652;-73
2022/07/07 01:31:02;;;;;;;6.97;1.52;;;;;12.50;94709.00;;;;7390098;19;20124;-74
2022/07/07 01:33:30;;;;;;;5.50;1.38;;;;;12.40;94705.00;;;;7389771;19;20579;-73
2022/07/07 01:35:57;;;;;;;3.13;1.33;;;;;12.40;94708.00;;;;7389623;19;20150;-72
2022/07/07 01:38:38;;;;;;;4.75;1.80;;;;;12.30;94699.00;;;;7389406;19;20598;-73
2022/07/07 01:41:05;;;;;;;5.50;1.60;;;;;12.40;94696.00;;;;7391733;19;20462;-73
2022/07/07 01:43:40;;;;;;;2.45;1.50;;;;;12.30;94697.00;;;;7390822;19;20586;-73
2022/07/07 01:46:08;;;;;;;1.65;1.30;;;;;12.10;94691.00;;;;7390213;19;20141;-73
2022/07/07 01:48:36;;;;;;;1.65;1.55;;;;;12.10;94682.00;;;;7389650;19;20121;-74
2022/07/07 01:51:13;;;;;;;2.83;1.45;;;;;12.10;94683.00;;;;7389916;19;20133;-73
2022/07/07 01:53:40;;;;;;;3.25;1.60;;;;;12.10;94682.00;;;;7387879;19;20141;-73
2022/07/07 01:56:10;;;;;;;2.50;1.55;;;;;12.00;94672.00;;;;7388049;19;20148;-74
2022/07/07 01:58:44;;;;;;;3.53;1.58;;;;;12.00;94673.00;;;;7387404;19;20208;-74
2022/07/07 02:01:12;;;;;;;1.58;1.35;;;;;12.20;94681.00;;;;7388937;19;20149;-73
2022/07/07 02:03:42;;;;;;;3.35;1.30;;;;;12.10;94677.00;;;;7389081;19;20141;-74
2022/07/07 02:06:30;;;;;;;2.45;1.60;;;;;12.00;94678.00;;;;7387173;19;20172;-73
2022/07/07 02:09:05;;;;;;;1.55;1.45;;;;;12.00;94677.00;;;;7388570;19;20595;-74
2022/07/07 02:11:40;;;;;;;2.65;1.33;;;;;12.00;94689.00;;;;7388411;19;20171;-74
2022/07/07 02:14:08;;;;;;;4.68;1.40;;;;;12.10;94685.00;;;;7386554;19;20728;-74
2022/07/07 02:16:36;;;;;;;2.42;1.30;;;;;12.10;94694.00;;;;7388325;19;20137;-73
2022/07/07 02:19:11;;;;;;;1.88;1.20;;;;;12.10;94692.00;;;;7388280;19;20144;-73
2022/07/07 02:21:38;;;;;;;1.95;1.38;;;;;12.00;94690.00;;;;7391809;19;20591;-73
2022/07/07 02:24:08;;;;;;;3.92;1.38;;;;;12.00;94688.00;;;;7395292;19;20136;-74
2022/07/07 02:26:42;;;;;;;2.13;1.50;;;;;11.90;94698.00;;;;7394433;19;20147;-74
2022/07/07 02:29:12;;;;;;;2.53;1.30;;;;;11.90;94696.00;;;;7397934;19;20144;-74
2022/07/07 02:31:43;;;;;;;1.77;1.15;;;;;11.90;94688.00;;;;7395873;19;20141;-73
2022/07/07 02:34:17;;;;;;;2.25;1.33;;;;;11.90;94696.00;;;;7394474;19;20128;-73
2022/07/07 02:36:47;;;;;;;1.40;1.30;;;;;11.70;94697.00;;;;7396360;19;20140;-73
2022/07/07 02:39:15;;;;;;;2.47;1.42;;;;;11.50;94697.00;;;;7396229;19;20141;-73
2022/07/07 02:41:56;;;;;;;1.90;1.30;;;;;11.40;94691.00;;;;7396262;19;20481;-73
2022/07/07 02:44:23;;;;;;;3.67;1.40;;;;;11.50;94681.00;;;;7391741;19;20167;-72
2022/07/07 02:46:57;;;;;;;2.22;1.25;;;;;11.50;94682.00;;;;7396361;19;20132;-72
2022/07/07 02:49:25;;;;;;;4.63;1.50;;;;;11.40;94684.00;;;;7395577;19;20129;-73
2022/07/07 02:51:52;;;;;;;3.20;1.45;;;;;11.30;94672.00;;;;7394639;19;20121;-73
2022/07/07 02:54:26;;;;;;;1.50;1.40;;;;;11.30;94671.00;;;;7390104;19;20137;-72
2022/07/07 02:56:56;;;;;;;4.30;1.45;;;;;11.10;94680.00;;;;7395288;19;20168;-73
2022/07/07 02:59:27;;;;;;;5.72;1.67;;;;;11.20;94685.00;;;;7396590;19;20125;-73
2022/07/07 03:02:09;;;;;;;3.25;1.58;;;;;11.10;94683.00;;;;7395639;19;20580;-74
2022/07/07 03:04:39;;;;;;;4.00;1.45;;;;;11.00;94678.00;;;;7394347;19;20626;-74
2022/07/07 03:07:22;;;;;;;8.07;1.70;;;;;11.10;94674.00;;;;7393011;19;20224;-74
2022/07/07 03:09:56;;;;;;;2.03;1.23;;;;;11.20;94670.00;;;;7394961;19;20591;-73
2022/07/07 03:12:30;;;;;;;1.88;1.33;;;;;11.20;94666.00;;;;7391962;19;20647;-74
2022/07/07 03:14:58;;;;;;;2.97;1.90;;;;;11.20;94663.00;;;;7391037;19;20133;-75
2022/07/07 03:17:26;;;;;;;2.00;1.20;;;;;11.20;94665.00;;;;7394113;19;20144;-74
2022/07/07 03:20:01;;;;;;;2.10;1.40;;;;;11.20;94658.00;;;;7394623;19;20484;-74
2022/07/07 03:22:28;;;;;;;2.85;1.38;;;;;11.30;94665.00;;;;7393278;19;20154;-74
2022/07/07 03:24:58;;;;;;;2.88;1.40;;;;;11.30;94656.00;;;;7392585;19;20530;-74
2022/07/07 03:27:33;;;;;;;2.75;1.50;;;;;11.20;94662.00;;;;7393758;19;20188;-74
2022/07/07 03:30:01;;;;;;;4.22;1.60;;;;;11.10;94664.00;;;;7393899;19;20138;-74
2022/07/07 03:32:29;;;;;;;1.92;1.48;;;;;11.10;94664.00;;;;7395011;19;20496;-74
2022/07/07 03:35:08;;;;;;;2.92;1.35;;;;;11.10;94664.00;;;;7392673;19;20162;-74
2022/07/07 03:37:38;;;;;;;3.10;1.58;;;;;11.00;94656.00;;;;7395254;19;20136;-74
2022/07/07 03:40:13;;;;;;;2.17;1.50;;;;;11.00;94649.00;;;;7394332;19;20602;-73
2022/07/07 03:42:41;;;;;;;3.00;1.40;;;;;11.00;94645.00;;;;7395089;19;20124;-74
2022/07/07 03:45:09;;;;;;;1.65;1.10;;;;;11.00;94654.00;;;;7393074;19;20153;-74
2022/07/07 03:47:44;;;;;;;2.42;1.33;;;;;10.90;94653.00;;;;7393340;19;20156;-75
2022/07/07 03:50:12;;;;;;;3.42;1.60;;;;;10.90;94656.00;;;;7392866;19;20139;-74
2022/07/07 03:52:39;;;;;;;4.78;1.63;;;;;10.90;94652.00;;;;7393922;19;20136;-74
2022/07/07 03:55:16;;;;;;;2.58;1.35;;;;;10.90;94645.00;;;;7391314;19;20167;-74
2022/07/07 03:57:44;;;;;;;3.22;1.77;;;;;10.90;94648.00;;;;7393175;19;20140;-74
2022/07/07 04:00:12;;;;;;;3.45;1.30;;;;;10.90;94640.00;;;;7391707;19;20141;-74
2022/07/07 04:02:47;;;;;;;2.55;1.60;;;;;10.90;94639.00;;;;7392773;19;20490;-74
2022/07/07 04:05:14;;;;;;;5.45;1.67;;;;;11.20;94638.00;;;;7394802;19;20129;-75
2022/07/07 04:07:44;;;;;;;3.40;1.45;;;;;11.30;94640.00;;;;7390626;19;20173;-73
2022/07/07 04:10:18;;;;;;;2.88;1.60;;;;;11.30;94638.00;;;;7391285;19;20211;-73
2022/07/07 04:12:47;;;;;;;9.23;1.60;;;;;11.30;94644.00;;;;7392802;19;20141;-75
2022/07/07 04:15:15;;;;;;;2.92;1.30;;;;;11.30;94646.00;;;;7391192;19;20133;-76
2022/07/07 04:17:49;;;;;;;3.67;1.52;;;;;11.20;94650.00;;;;7394060;19;20135;-74
2022/07/07 04:20:20;;;;;;;2.88;1.30;;;;;11.20;94639.00;;;;7391549;19;20132;-73
2022/07/07 04:22:48;;;;;;;2.63;1.40;;;;;11.30;94635.00;;;;7391929;19;20156;-74
2022/07/07 04:25:22;;;;;;;2.42;1.80;;;;;11.30;94639.00;;;;7393803;19;20130;-73
2022/07/07 04:27:53;;;;;;;2.90;1.40;;;;;11.30;94637.00;;;;7391363;19;20496;-74
2022/07/07 04:30:21;;;;;;;3.90;1.60;;;;;11.30;94635.00;;;;7391199;19;20562;-74
2022/07/07 04:32:55;;;;;;;2.28;1.55;;;;;11.30;94636.00;;;;7392075;19;20133;-74
2022/07/07 04:35:23;;;;;;;2.20;1.35;;;;;11.40;94631.00;;;;7390213;19;20196;-74
2022/07/07 04:37:51;;;;;;;3.90;1.50;;;;;11.60;94635.00;;;;7390868;19;20140;-75
2022/07/07 04:40:24;;;;;;;3.83;1.70;;;;;11.80;94638.00;;;;7391961;19;20473;-74
2022/07/07 04:42:52;;;;;;;4.90;1.77;;;;;12.10;94633.00;;;;7393918;19;20113;-74
2022/07/07 04:45:29;;;;;;;5.85;1.50;;;;;12.50;94635.00;;;;7389622;19;20512;-75
2022/07/07 04:48:04;;;;;;;4.13;1.60;;;;;12.80;94633.00;;;;7391132;19;20145;-75
2022/07/07 04:50:31;;;;;;;2.55;1.30;;;;;13.10;94636.00;;;;7391406;19;20140;-75
2022/07/07 04:52:59;;;;;;;1.52;1.40;;;;;13.40;94624.00;;;;7391879;19;20627;-73
2022/07/07 04:55:34;;;;;;;3.17;1.70;;;;;13.50;94618.00;;;;7391478;19;20113;-73
2022/07/07 04:58:01;;;;;;;2.22;1.55;;;;;13.70;94623.00;;;;7391934;19;20486;-75
2022/07/07 05:00:29;;;;;;;4.88;1.60;;;;;13.80;94617.00;;;;7391938;19;20176;-74
2022/07/07 05:03:03;;;;;;;3.58;1.50;;;;;14.00;94622.00;;;;7386730;19;20847;-74
2022/07/07 05:05:48;;;;;;;5.97;1.48;;;;;14.10;94612.00;;;;7392664;19;20156;-73
2022/07/07 05:08:32;;;;;;;1.88;1.27;;;;;14.40;94606.00;;;;7392002;19;20177;-73
2022/07/07 05:11:03;;;;;;;3.15;1.50;;;;;14.30;94616.00;;;;7393782;19;20259;-73
2022/07/07 05:13:37;;;;;;;3.13;1.20;;;;;14.50;94611.00;;;;7397021;19;20128;-72
2022/07/07 05:16:05;;;;;;;2.58;1.20;;;;;14.70;94616.00;;;;7395419;19;20159;-72
2022/07/07 05:18:33;;;;;;;3.80;1.70;;;;;14.70;94610.00;;;;7392755;19;20631;-74
2022/07/07 05:21:09;;;;;;;3.42;1.60;;;;;14.90;94601.00;;;;7396329;19;20148;-72
2022/07/07 05:23:37;;;;;;;1.98;1.40;;;;;15.10;94608.00;;;;7398211;19;20129;-75
2022/07/07 05:26:09;;;;;;;3.97;1.73;;;;;15.30;94604.00;;;;7395519;19;20560;-74
2022/07/07 05:28:43;;;;;;;2.75;1.40;;;;;15.40;94606.00;;;;7393247;19;20128;-74
2022/07/07 05:31:14;;;;;;;3.05;1.40;;;;;15.50;94614.00;;;;7392418;19;20224;-71
2022/07/07 05:33:45;;;;;;;3.63;1.40;;;;;15.50;94609.00;;;;7393927;19;20125;-74
2022/07/07 05:36:21;;;;;;;4.88;1.50;;;;;15.80;94610.00;;;;7391371;19;20144;-74
2022/07/07 05:38:52;;;;;;;4.90;1.52;;;;;16.00;94602.00;;;;7391690;19;20635;-73
2022/07/07 05:41:27;;;;;;;4.70;1.60;;;;;16.00;94604.00;;;;7393282;19;20474;-74
2022/07/07 05:43:57;;;;;;;3.35;1.50;;;;;16.40;94603.00;;;;7393524;19;20137;-74
2022/07/07 05:46:24;;;;;;;3.97;1.35;;;;;16.70;94607.00;;;;7390804;19;20667;-72
2022/07/07 05:48:59;;;;;;;3.60;1.65;;;;;16.70;94606.00;;;;7393397;19;20149;-74
2022/07/07 05:51:27;;;;;;;1.92;1.30;;;;;16.60;94611.00;;;;7393204;19;20155;-75
2022/07/07 05:53:57;;;;;;;4.55;1.77;;;;;16.80;94609.00;;;;7391836;19;20129;-74
2022/07/07 05:56:37;;;;;;;4.13;1.70;;;;;17.00;94614.00;;;;7397322;19;20128;-73
2022/07/07 05:59:05;;;;;;;3.65;1.80;;;;;17.00;94610.00;;;;7399180;19;20148;-72
2022/07/07 06:01:41;;;;;;;2.83;1.60;;;;;16.70;94622.00;;;;7399676;19;20177;-72
2022/07/07 06:04:08;;;;;;;3.05;1.45;;;;;16.50;94620.00;;;;7399702;19;20163;-72
2022/07/07 06:06:36;;;;;;;2.58;1.50;;;;;16.70;94623.00;;;;7397450;19;20172;-72
2022/07/07 06:09:18;;;;;;;4.70;1.35;;;;;16.80;94619.00;;;;7400095;19;20183;-71
2022/07/07 06:11:48;;;;;;;2.78;1.42;;;;;17.20;94613.00;;;;7397270;19;20231;-72
2022/07/07 06:14:22;;;;;;;4.10;1.63;;;;;17.40;94624.00;;;;7395276;19;20158;-72
2022/07/07 06:16:51;;;;;;;3.08;1.40;;;;;17.30;94618.00;;;;7396950;19;20157;-72
2022/07/07 06:19:22;;;;;;;4.32;1.60;;;;;17.60;94630.00;;;;7397849;19;20149;-72
2022/07/07 06:21:56;;;;;;;4.43;1.60;;;;;17.90;94617.00;;;;7399894;19;20608;-72
2022/07/07 06:24:23;;;;;;;3.28;1.55;;;;;17.90;94606.00;;;;7395280;19;20592;-71
2022/07/07 06:26:51;;;;;;;4.82;1.83;;;;;18.10;94613.00;;;;7397639;19;20133;-71
2022/07/07 06:29:28;;;;;;;4.10;1.60;;;;;17.70;94609.00;;;;7398374;19;20203;-71
2022/07/07 06:31:55;;;;;;;4.00;1.67;;;;;17.40;94602.00;;;;7398334;19;20615;-71
2022/07/07 06:34:23;;;;;;;3.15;1.70;;;;;17.10;94607.00;;;;7394359;19;20139;-70
2022/07/07 06:36:58;;;;;;;2.40;1.52;;;;;17.00;94607.00;;;;7396707;19;20749;-70
2022/07/07 06:39:33;;;;;;;3.60;1.60;;;;;17.60;94612.00;;;;7398237;19;20519;-72
2022/07/07 06:42:07;;;;;;;3.28;1.70;;;;;17.60;94604.00;;;;7398106;19;20140;-71
2022/07/07 06:44:38;;;;;;;5.43;1.65;;;;;17.80;94612.00;;;;7397066;19;20135;-70
2022/07/07 06:47:06;;;;;;;3.75;1.40;;;;;17.70;94612.00;;;;7396175;19;20615;-71
2022/07/07 06:49:39;;;;;;;3.92;1.25;;;;;17.50;94606.00;;;;7396624;19;20145;-71
2022/07/07 06:52:08;;;;;;;3.22;1.48;;;;;17.40;94610.00;;;;7398222;19;20152;-73
2022/07/07 06:54:38;;;;;;;5.22;1.50;;;;;17.70;94608.00;;;;7397476;19;20139;-72
2022/07/07 06:57:16;;;;;;;5.18;2.00;;;;;17.60;94620.00;;;;7396932;19;20196;-74
2022/07/07 06:59:44;;;;;;;4.70;1.73;;;;;17.80;94606.00;;;;7399219;19;20117;-72
2022/07/07 07:02:17;;;;;;;3.08;1.65;;;;;17.90;94608.00;;;;7394934;19;20655;-72
2022/07/07 07:04:52;;;;;;;3.92;1.50;;;;;18.20;94613.00;;;;7396397;19;20157;-74
2022/07/07 07:07:33;;;;;;;2.72;1.58;;;;;18.00;94626.00;;;;7395412;19;20624;-71
2022/07/07 07:10:08;;;;;;;4.18;1.67;;;;;17.70;94629.00;;;;7399009;19;20128;-74
2022/07/07 07:12:36;;;;;;;5.25;1.88;;;;;17.60;94628.00;;;;7394652;19;20153;-72
2022/07/07 07:15:04;;;;;;;2.78;1.75;;;;;17.50;94637.00;;;;7395537;19;20145;-73
2022/07/07 07:17:39;;;;;;;4.15;1.80;;;;;17.60;94633.00;;;;7399294;19;20132;-72
2022/07/07 07:20:07;;;;;;;1.83;1.52;;;;;17.50;94634.00;;;;7397216;19;20149;-71
2022/07/07 07:22:39;;;;;;;2.22;1.60;;;;;17.30;94628.00;;;;7395937;19;20606;-71
2022/07/07 07:25:15;;;;;;;4.75;1.70;;;;;17.60;94640.00;;;;7396017;19;20152;-70
2022/07/07 07:27:43;;;;;;;4.95;1.85;;;;;17.70;94635.00;;;;7398021;19;20642;-71
2022/07/07 07:30:12;;;;;;;4.82;1.98;;;;;17.70;94641.00;;;;7393070;19;20144;-71
2022/07/07 07:32:46;;;;;;;3.22;1.70;;;;;17.60;94648.00;;;;7397043;19;20156;-70
2022/07/07 07:35:13;;;;;;;5.20;2.05;;;;;17.50;94650.00;;;;7397630;19;20151;-71
2022/07/07 07:37:41;;;;;;;4.70;1.83;;;;;17.30;94657.00;;;;7397007;19;20151;-71
2022/07/07 07:40:16;;;;;;;4.80;2.33;;;;;17.40;94656.00;;;;7397421;19;20136;-74
2022/07/07 07:42:43;;;;;;;7.38;2.08;;;;;16.90;94667.00;;;;7395065;19;20172;-71
2022/07/07 07:45:11;;;;;;;2.95;1.90;;;;;16.70;94665.00;;;;7395049;19;20137;-71
2022/07/07 07:47:47;;;;;;;3.63;1.92;;;;;16.50;94682.00;;;;7396704;19;20152;-72
2022/07/07 07:50:19;;;;;;;3.17;1.92;;;;;16.50;94674.00;;;;7391808;19;20583;-72
2022/07/07 07:52:52;;;;;;;3.75;2.17;;;;;16.50;94668.00;;;;7394055;19;20159;-73
2022/07/07 07:55:21;;;;;;;3.95;1.95;;;;;16.70;94673.00;;;;7395358;19;20156;-70
2022/07/07 07:57:51;;;;;;;2.65;1.88;;;;;16.80;94685.00;;;;7394980;19;20172;-72
2022/07/07 08:00:25;;;;;;;3.10;2.08;;;;;17.10;94680.00;;;;7392233;19;20640;-72
2022/07/07 08:02:52;;;;;;;3.33;1.95;;;;;17.20;94688.00;;;;7394166;19;20124;-68
2022/07/07 08:05:20;;;;;;;3.17;1.92;;;;;16.90;94690.00;;;;7396125;19;20140;-71
2022/07/07 08:08:08;;;;;;;4.75;2.20;;;;;16.60;94696.00;;;;7390540;19;20611;-72
2022/07/07 08:10:42;;;;;;;3.10;2.03;;;;;16.40;94691.00;;;;7393574;19;20660;-74
2022/07/07 08:13:17;;;;;;;5.22;2.20;;;;;16.10;94713.00;;;;7396637;19;20138;-73
2022/07/07 08:15:45;;;;;;;3.35;2.55;;;;;15.90;94709.00;;;;7394579;19;20603;-72
2022/07/07 08:18:13;;;;;;;5.18;2.95;;;;;15.70;94703.00;;;;7390246;19;20152;-70
2022/07/07 08:20:46;;;;;;;5.28;3.70;;;;;15.90;94703.00;;;;7389791;19;20603;-72
2022/07/07 08:23:14;;;;;;;8.88;3.72;;;;;15.90;94695.00;;;;7394397;19;20156;-72
2022/07/07 08:25:42;;;;;;;9.20;4.38;;;;;16.00;94701.00;;;;7394198;19;20596;-72
2022/07/07 08:28:15;;;;;;;7.60;4.38;;;;;16.20;94700.00;;;;7390787;19;20175;-72
2022/07/07 08:30:43;;;;;;;5.82;3.88;;;;;16.70;94689.00;;;;7391877;19;20520;-73
2022/07/07 08:33:11;;;;;;;7.50;5.40;;;;;17.00;94695.00;;;;7395337;19;20136;-72
2022/07/07 08:35:44;;;;;;;8.07;4.78;;;;;16.80;94694.00;;;;7392292;19;20132;-71
2022/07/07 08:38:12;;;;;;;7.05;4.32;;;;;16.80;94700.00;;;;7390420;19;20153;-72
2022/07/07 08:40:40;;;;;;;7.15;4.60;;;;;16.60;94690.00;;;;7394482;19;20136;-73
2022/07/07 08:43:15;;;;;;;6.85;4.82;;;;;16.50;94700.00;;;;7395710;19;20204;-72
2022/07/07 08:45:43;;;;;;;5.43;4.15;;;;;16.40;94708.00;;;;7395344;19;20133;-71
2022/07/07 08:48:11;;;;;;;6.07;4.15;;;;;16.40;94705.00;;;;7391575;19;20129;-72
2022/07/07 08:50:47;;;;;;;5.13;3.78;;;;;16.10;94707.00;;;;7392525;19;20140;-73
2022/07/07 08:53:15;;;;;;;6.28;3.95;;;;;16.10;94715.00;;;;7394158;19;20582;-73
2022/07/07 08:55:43;;;;;;;9.20;4.40;;;;;15.70;94717.00;;;;7393953;19;20129;-73
2022/07/07 08:58:19;;;;;;;11.25;4.63;;;;;15.60;94714.00;;;;7392715;19;20128;-71
2022/07/07 09:01:07;;;;;;;8.82;4.45;;;;;15.50;94701.00;;;;7393934;19;20188;-71
2022/07/07 09:03:41;;;;;;;7.07;4.57;;;;;15.60;94684.00;;;;7395761;19;20591;-72
2022/07/07 09:10:09;;;;;;;5.20;4.20;;;;;15.70;94691.00;;;;7381644;19;20574;-73
2022/07/07 09:12:45;;;;;;;6.32;4.68;;;;;15.80;94675.00;;;;7392074;19;20152;-72
2022/07/07 09:15:22;;;;;;;5.30;4.03;;;;;16.20;94671.00;;;;7393085;19;20155;-72
2022/07/07 09:17:57;;;;;;;7.90;4.00;;;;;16.80;94667.00;;;;7395633;19;20136;-74
2022/07/07 09:20:40;;;;;;;5.90;3.67;;;;;17.10;94670.00;;;;7394118;19;20145;-72
2022/07/07 09:23:14;;;;;;;6.00;3.42;;;;;16.70;94681.00;;;;7394203;19;20149;-74
2022/07/07 09:25:43;;;;;;;5.85;4.10;;;;;16.40;94675.00;;;;7383234;19;20125;-74
2022/07/07 09:32:01;;;;;;;4.28;3.53;;;;;16.50;94645.00;;;;7393395;19;20607;-73
2022/07/07 09:34:37;;;;;;;5.97;3.45;;;;;16.40;94643.00;;;;7403499;19;20128;-72
2022/07/07 09:39:59;;;;;;;4.75;3.83;;;;;16.40;94643.00;;;;7399536;19;20152;-72
2022/07/07 09:42:37;;;;;;;5.43;3.60;;;;;16.70;94656.00;;;;7402157;19;20132;-72
2022/07/07 09:45:12;;;;;;;5.32;3.40;;;;;16.60;94658.00;;;;7398271;19;20620;-72
2022/07/07 09:47:40;;;;;;;6.10;3.45;;;;;17.20;94660.00;;;;7399074;19;20217;-74
2022/07/07 09:50:13;;;;;;;4.25;3.35;;;;;17.00;94669.00;;;;7399870;19;20149;-74
2022/07/07 09:52:47;;;;;;;6.63;3.42;;;;;17.20;94640.00;;;;7396250;19;20128;-71
2022/07/07 09:55:15;;;;;;;7.53;3.30;;;;;18.20;94661.00;;;;7397599;19;20618;-73
2022/07/07 09:57:44;;;;;;;2.72;2.53;;;;;18.50;94647.00;;;;7398223;19;20160;-73
2022/07/07 10:00:19;;;;;;;5.45;2.72;;;;;19.20;94649.00;;;;7400922;19;20128;-74
2022/07/07 10:02:49;;;;;;;3.78;2.42;;;;;19.10;94646.00;;;;7397355;19;20145;-73
2022/07/07 10:05:18;;;;;;;4.82;2.42;;;;;19.00;94647.00;;;;7398620;19;20136;-71
2022/07/07 10:07:55;;;;;;;2.30;2.10;;;;;19.20;94641.00;;;;7398367;19;20159;-74
2022/07/07 10:10:30;;;;;;;3.92;1.90;;;;;19.10;94644.00;;;;7396931;19;20163;-74
2022/07/07 10:13:05;;;;;;;3.50;2.15;;;;;19.40;94642.00;;;;7397147;19;20169;-74
2022/07/07 10:15:33;;;;;;;3.80;2.15;;;;;19.30;94661.00;;;;7397125;19;20132;-72
2022/07/07 10:18:01;;;;;;;4.07;2.00;;;;;18.90;94677.00;;;;7398237;19;20580;-72
2022/07/07 10:20:35;;;;;;;4.18;2.30;;;;;19.50;94657.00;;;;7398116;19;20136;-74
2022/07/07 10:23:04;;;;;;;3.05;2.20;;;;;19.80;94657.00;;;;7395300;19;20559;-72
2022/07/07 10:25:34;;;;;;;4.10;1.85;;;;;19.90;94660.00;;;;7397217;19;20148;-73
2022/07/07 10:28:08;;;;;;;3.90;2.40;;;;;19.90;94666.00;;;;7397663;19;20617;-72
2022/07/07 10:30:35;;;;;;;6.10;2.08;;;;;19.20;94664.00;;;;7398116;19;20129;-71
2022/07/07 10:33:04;;;;;;;7.57;2.25;;;;;18.60;94663.00;;;;7396423;19;20149;-73
2022/07/07 10:35:45;;;;;;;4.57;2.55;;;;;18.20;94684.00;;;;7396718;19;20148;-73
2022/07/07 10:38:18;;;;;;;4.85;2.83;;;;;18.10;94677.00;;;;7397576;19;20144;-76
2022/07/07 10:40:54;;;;;;;3.25;2.20;;;;;18.00;94675.00;;;;7395066;19;20686;-75
2022/07/07 10:43:33;;;;;;;4.45;2.28;;;;;18.10;94678.00;;;;7394116;19;20129;-73
2022/07/07 10:46:10;;;;;;;6.20;2.20;;;;;18.20;94694.00;;;;7397260;19;20212;-73
2022/07/07 10:48:46;;;;;;;4.75;2.50;;;;;18.10;94694.00;;;;7400168;19;20663;-74
2022/07/07 10:51:26;;;;;;;9.68;3.25;;;;;18.40;94697.00;;;;7396208;19;20132;-73
2022/07/07 10:54:00;;;;;;;8.50;2.78;;;;;18.40;94702.00;;;;7396445;19;20155;-72
2022/07/07 10:56:53;;;;;;;9.40;2.50;;;;;18.40;94697.00;;;;7397319;19;20624;-72
2022/07/07 10:59:23;;;;;;;6.00;2.50;;;;;18.70;94697.00;;;;7397199;19;20133;-72
2022/07/07 11:02:36;;;;;;;4.97;2.72;;;;;18.70;94685.00;;;;7396158;19;20148;-71
2022/07/07 11:05:13;;;;;;;5.13;3.05;;;;;18.70;94688.00;;;;7394953;19;20639;-73
2022/07/07 11:08:06;;;;;;;6.32;3.45;;;;;19.10;94706.00;;;;7396185;19;20531;-72
2022/07/07 11:10:43;;;;;;;5.75;3.15;;;;;18.90;94694.00;;;;7397169;19;20179;-73
2022/07/07 11:13:30;;;;;;;7.10;3.50;;;;;18.70;94704.00;;;;7392804;19;20498;-73
2022/07/07 11:16:27;;;;;;;6.35;3.58;;;;;19.10;94688.00;;;;7389942;19;20728;-74
2022/07/07 11:19:04;;;;;;;5.88;2.60;;;;;19.50;94699.00;;;;7388626;19;20152;-74
2022/07/07 11:21:36;;;;;;;5.90;3.05;;;;;19.20;94694.00;;;;7390158;19;20148;-75
2022/07/07 11:24:31;;;;;;;4.68;2.58;;;;;18.70;94705.00;;;;7391294;19;20152;-73
2022/07/07 11:27:03;;;;;;;5.70;2.88;;;;;18.50;94712.00;;;;7389076;19;20178;-74
2022/07/07 11:29:37;;;;;;;6.80;2.67;;;;;18.30;94719.00;;;;7390957;19;20168;-75
2022/07/07 11:32:08;;;;;;;6.03;2.85;;;;;18.10;94706.00;;;;7392008;19;20145;-78
2022/07/07 11:34:41;;;;;;;7.80;2.85;;;;;18.10;94713.00;;;;7394999;19;20140;-72
2022/07/07 11:37:25;;;;;;;7.13;2.55;;;;;17.90;94722.00;;;;7391022;19;20790;-75
2022/07/07 11:39:55;;;;;;;5.38;2.53;;;;;18.00;94707.00;;;;7393321;19;20606;-71
2022/07/07 11:42:35;;;;;;;6.03;3.00;;;;;18.30;94712.00;;;;7393090;19;20204;-71
2022/07/07 11:45:22;;;;;;;9.73;3.05;;;;;18.40;94716.00;;;;7389564;19;20658;-71
2022/07/07 11:48:01;;;;;;;5.57;2.83;;;;;18.40;94720.00;;;;7391122;19;20576;-73
2022/07/07 11:50:31;;;;;;;4.25;3.10;;;;;18.20;94729.00;;;;7390163;19;20145;-72
2022/07/07 11:53:05;;;;;;;6.32;2.97;;;;;18.20;94728.00;;;;7388509;19;20618;-74
2022/07/07 11:55:35;;;;;;;7.07;3.50;;;;;18.10;94728.00;;;;7389732;19;20156;-72
2022/07/07 11:58:07;;;;;;;7.93;2.97;;;;;17.90;94745.00;;;;7390102;19;20133;-73
2022/07/07 12:00:41;;;;;;;5.20;2.88;;;;;17.80;94735.00;;;;7390583;19;20773;-70
2022/07/07 12:03:10;;;;;;;3.65;2.90;;;;;17.70;94730.00;;;;7386485;19;20149;-72
2022/07/07 12:05:46;;;;;;;4.82;3.00;;;;;17.50;94747.00;;;;7387048;19;20857;-73
2022/07/07 12:08:20;;;;;;;6.97;3.38;;;;;17.20;94747.00;;;;7389954;19;20480;-73
2022/07/07 12:11:06;;;;;;;5.30;3.22;;;;;17.20;94749.00;;;;7385495;19;20248;-71
2022/07/07 12:13:45;;;;;;;5.88;3.40;;;;;17.40;94745.00;;;;7388737;19;20138;-72
2022/07/07 12:16:13;;;;;;;6.65;2.92;;;;;17.80;94743.00;;;;7388422;19;20179;-72
2022/07/07 12:18:42;;;;;;;4.40;3.50;;;;;18.10;94738.00;;;;7389017;19;20117;-73
2022/07/07 12:21:25;;;;;;;6.95;3.05;;;;;18.70;94737.00;;;;7387270;19;20144;-73
2022/07/07 12:23:53;;;;;;;4.72;2.92;;;;;18.90;94734.00;;;;7386907;19;20124;-72
2022/07/07 12:26:41;;;;;;;3.92;3.08;;;;;18.70;94727.00;;;;7388542;19;20753;-70
2022/07/07 12:29:09;;;;;;;4.72;2.92;;;;;19.00;94724.00;;;;7388836;19;20200;-72
2022/07/07 12:31:44;;;;;;;4.18;2.92;;;;;19.20;94725.00;;;;7387760;19;20143;-74
2022/07/07 12:34:19;;;;;;;6.78;3.15;;;;;19.40;94718.00;;;;7390219;19;20137;-74
2022/07/07 12:36:54;;;;;;;8.23;3.00;;;;;19.40;94733.00;;;;7385568;19;20561;-73
2022/07/07 12:39:21;;;;;;;9.65;3.00;;;;;19.60;94733.00;;;;7388479;19;20137;-73
2022/07/07 12:41:55;;;;;;;5.93;2.70;;;;;19.70;94724.00;;;;7386604;19;20152;-73
2022/07/07 12:44:35;;;;;;;4.78;3.03;;;;;19.20;94728.00;;;;7389825;19;20845;-71
2022/07/07 12:47:30;;;;;;;5.10;3.00;;;;;19.30;94720.00;;;;7387093;19;20609;-71
2022/07/07 12:50:08;;;;;;;3.33;2.72;;;;;19.30;94734.00;;;;7389365;19;20200;-74
2022/07/07 12:52:38;;;;;;;4.60;2.40;;;;;19.20;94737.00;;;;7390696;19;20144;-72
2022/07/07 12:55:13;;;;;;;8.40;2.83;;;;;19.00;94727.00;;;;7386565;19;20152;-71
2022/07/07 12:57:41;;;;;;;4.38;2.53;;;;;18.70;94727.00;;;;7385777;19;20149;-72